createdAt,value
2024-02-10T00:12:10.007Z,96.78
2024-02-10T00:18:15.449Z,97.34
2024-02-10T00:23:49.867Z,97.63
2024-02-10T00:29:01.071Z,97.89
2024-02-10T00:34:27.601Z,98.25
2024-02-10T00:40:31.731Z,98.59
2024-02-10T00:46:09.338Z,98.61
2024-02-10T00:52:03.521Z,98.93
2024-02-10T00:57:58.528Z,98.95
2024-02-10T01:03:38.630Z,99.07
2024-02-10T01:21:32.788Z,99.28
2024-02-10T01:27:16.867Z,99.13
2024-02-10T01:44:56.589Z,99.09
2024-02-10T02:15:19.890Z,98.97
2024-02-10T02:20:49.620Z,99.26
2024-02-10T02:26:24.195Z,99.61
2024-02-10T02:31:45.716Z,99.93
2024-02-10T02:37:12.264Z,99.95
2024-02-10T02:42:46.116Z,99.94
2024-02-10T02:48:12.816Z,99.96
2024-02-10T02:53:49.657Z,100.00
2024-02-10T02:59:45.426Z,99.97
2024-02-10T03:05:40.768Z,100.00
2024-02-10T03:11:06.702Z,100.00
2024-02-10T03:22:37.933Z,100.00
2024-02-10T03:28:28.210Z,100.00
2024-02-10T03:34:22.037Z,100.00
2024-02-10T03:40:14.921Z,100.00
2024-02-10T03:45:52.817Z,100.00
2024-02-10T03:51:36.795Z,100.00
2024-02-10T03:57:15.574Z,100.00
2024-02-10T04:02:56.609Z,100.00
2024-02-10T04:08:49.653Z,100.00
2024-02-10T04:14:44.416Z,100.00
2024-02-10T04:20:38.619Z,100.00
2024-02-10T04:26:42.656Z,100.00
2024-02-10T04:32:51.556Z,100.00
2024-02-10T04:38:29.752Z,100.00
2024-02-10T04:43:47.035Z,100.00
2024-02-10T04:49:42.288Z,100.00
2024-02-10T04:55:09.477Z,100.00
2024-02-10T05:00:55.432Z,100.00
2024-02-10T05:06:49.678Z,100.00
2024-02-10T05:12:33.622Z,100.00
2024-02-10T05:18:37.660Z,100.00
2024-02-10T05:24:41.783Z,100.00
2024-02-10T05:30:40.994Z,100.00
2024-02-10T05:36:36.582Z,100.00
2024-02-10T05:42:29.980Z,100.00
2024-02-10T05:48:15.324Z,100.00
2024-02-10T05:53:44.629Z,100.00
2024-02-10T05:59:22.614Z,100.00
2024-02-10T06:05:09.273Z,100.00
2024-02-10T06:28:13.864Z,100.00
2024-02-10T06:51:28.076Z,100.00
2024-02-10T07:20:21.787Z,100.00
2024-02-10T07:26:22.702Z,100.00
2024-02-10T07:32:26.793Z,100.00
2024-02-10T07:37:49.809Z,100.00
2024-02-10T07:43:37.520Z,100.00
2024-02-10T07:49:04.746Z,100.00
2024-02-10T07:54:58.077Z,100.00
2024-02-10T08:00:32.265Z,100.00
2024-02-10T08:12:21.953Z,100.00
2024-02-10T11:21:59.671Z,99.59
2024-02-10T11:28:03.648Z,99.14
2024-02-10T11:33:27.628Z,99.63
2024-02-10T11:39:30.925Z,99.65
2024-02-10T11:45:34.971Z,99.58
2024-02-10T11:51:24.434Z,99.79
2024-02-10T11:57:08.829Z,99.85
2024-02-10T12:31:31.187Z,100.00
2024-02-10T12:42:53.660Z,100.00
2024-02-10T12:48:41.683Z,100.00
2024-02-10T12:54:17.715Z,100.00
2024-02-10T12:59:51.695Z,100.00
2024-02-10T13:05:27.472Z,100.00
2024-02-10T13:10:42.163Z,100.00
2024-02-10T13:15:51.365Z,100.00
2024-02-10T13:20:55.185Z,100.00
2024-02-10T13:26:39.292Z,100.00
2024-02-10T13:32:26.369Z,100.00
2024-02-10T13:38:00.435Z,100.00
2024-02-10T13:43:27.838Z,100.00
2024-02-10T13:48:57.812Z,100.00
2024-02-10T13:54:37.864Z,100.00
2024-02-10T14:00:18.083Z,100.00
2024-02-10T14:06:08.200Z,100.00
2024-02-10T14:12:02.494Z,99.94
2024-02-10T14:17:16.397Z,100.00
2024-02-10T14:22:43.209Z,100.00
2024-02-10T14:27:56.250Z,100.00
2024-02-10T14:33:34.402Z,100.00
2024-02-10T14:39:31.136Z,100.00
2024-02-10T14:44:52.017Z,100.00
2024-02-10T14:50:26.415Z,100.00
2024-02-10T14:56:00.776Z,100.00
2024-02-10T15:01:08.618Z,100.00
2024-02-10T15:06:25.161Z,100.00
2024-02-10T15:11:52.552Z,100.00
2024-02-10T15:17:01.665Z,100.00
2024-02-10T15:22:20.719Z,100.00
2024-02-10T15:28:14.776Z,100.00
2024-02-10T15:33:23.377Z,100.00
2024-02-10T15:39:12.966Z,100.00
2024-02-10T15:44:29.460Z,100.00
2024-02-10T15:50:06.875Z,100.00
2024-02-10T15:55:34.004Z,100.00
2024-02-10T16:06:27.703Z,100.00
2024-02-10T16:11:42.420Z,100.00
2024-02-10T16:16:48.840Z,100.00
2024-02-10T16:22:15.826Z,100.00
2024-02-10T16:28:04.026Z,100.00
2024-02-10T16:33:14.461Z,100.00
2024-02-10T16:38:41.999Z,100.00
2024-02-10T16:43:45.531Z,100.00
2024-02-10T16:49:12.384Z,100.00
2024-02-10T16:54:16.261Z,100.00
2024-02-10T16:59:24.590Z,100.00
2024-02-10T17:04:36.915Z,100.00
2024-02-10T17:10:00.815Z,100.00
2024-02-10T17:15:48.068Z,100.00
2024-02-10T17:20:58.448Z,100.00
2024-02-10T17:26:42.937Z,100.00
2024-02-10T17:32:20.165Z,100.00
2024-02-10T17:38:05.631Z,100.00
2024-02-10T17:43:29.735Z,100.00
2024-02-10T17:49:35.035Z,100.00
2024-02-10T17:54:53.042Z,100.00
2024-02-10T18:00:17.370Z,100.00
2024-02-10T18:05:27.668Z,100.00
2024-02-10T18:10:54.639Z,100.00
2024-02-10T18:16:56.289Z,100.00
2024-02-10T18:22:16.070Z,100.00
2024-02-10T18:28:05.849Z,100.00
2024-02-10T18:33:50.070Z,100.00
2024-02-10T18:45:06.956Z,100.00
2024-02-10T18:56:47.176Z,100.00
2024-02-10T19:02:12.268Z,100.00
2024-02-10T19:07:30.331Z,100.00
2024-02-10T19:13:19.900Z,100.00
2024-02-10T19:18:33.353Z,100.00
2024-02-10T19:24:03.478Z,100.00
2024-02-10T19:29:19.994Z,100.00
2024-02-10T19:34:24.089Z,100.00
2024-02-10T19:39:44.505Z,100.00
2024-02-10T19:45:11.845Z,100.00
2024-02-10T19:51:08.684Z,100.00
2024-02-10T19:56:59.230Z,100.00
2024-02-10T20:02:12.912Z,100.00
2024-02-10T20:07:50.207Z,100.00
2024-02-10T20:14:08.314Z,100.00
2024-02-10T20:19:23.885Z,100.00
2024-02-10T20:25:10.629Z,100.00
2024-02-10T20:31:07.797Z,100.00
2024-02-10T20:37:11.958Z,100.00
2024-02-10T20:42:57.482Z,100.00
2024-02-10T20:48:35.128Z,100.00
2024-02-10T20:54:30.269Z,100.00
2024-02-10T21:00:08.516Z,100.00
2024-02-10T21:06:14.701Z,100.00
2024-02-10T21:12:01.451Z,100.00
2024-02-10T21:17:47.941Z,100.00
2024-02-10T21:23:45.901Z,100.00
2024-02-10T21:29:40.972Z,100.00
2024-02-10T21:35:14.627Z,100.00
2024-02-10T21:41:13.283Z,100.00
2024-02-10T22:20:33.572Z,100.00
2024-02-10T22:26:25.789Z,100.00
2024-02-10T22:32:03.572Z,100.00
2024-02-10T22:37:30.596Z,100.00
2024-02-10T22:42:56.239Z,100.00
2024-02-10T22:48:00.585Z,100.00
2024-02-10T22:53:26.218Z,100.00
2024-02-10T22:59:12.988Z,100.00
2024-02-10T23:44:57.780Z,100.00
2024-02-10T23:50:42.849Z,100.00
2024-02-10T23:55:52.777Z,100.00
